Leisure City, Florida
Current Conditions -  °F | °C
As of 6:58 AM on Sunday 23 Nov 2014 (Local Time) from KHST Reporting Station
Clear Clear  
Wind Chill: 76°   Ceiling: Unl
Heat Index: 77°   Visibility: 10mi
Dew Point: 72°   Wind: 8mph
Humidity: 85%   Direction: 120°ESE
Pressure: 30.02"   Gusts: NA
Location:  25.5°N, 80.43°W
Report Text: KHST 231158Z AUTO 12007KT 10SM CLR 25/22 A3002 RMK AO2 SLP169 70001 T02460220 10247 20243 53006 $
Loading
Personal Weather Stations






























Interactive Weather Map New forecast layout! Learn more

10-Day Weather Forecast

Advertisements
Track Severe Weather on mobile